Time;durP1;ratioP1;P1;durP2;ratioP2;P2;SDS_P1;SDS_P2;PMS_P1;PMS_P2;Temp;Humidity;BMP_temperature;BMP_pressure;BME280_temperature;BME280_humidity;BME280_pressure;Samples;Min_cycle;Max_cycle;Signal;HPM_P1;HPM_P2
2023/07/13 00:01:54;;;;;;;4.90;3.25;;;;;;;;;;10490124;28;20049;-77
2023/07/13 00:06:57;;;;;;;4.28;2.67;;;;;;;;;;10493375;28;20055;-76
2023/07/13 00:12:02;;;;;;;6.30;3.25;;;;;;;;;;10478704;28;20037;-77
2023/07/13 00:17:05;;;;;;;6.95;3.30;;;;;;;;;;10463616;28;20053;-76
2023/07/13 00:22:07;;;;;;;4.28;1.67;;;;;;;;;;10452426;28;20096;-76
2023/07/13 00:27:11;;;;;;;7.87;3.00;;;;;;;;;;10449336;28;20454;-77
2023/07/13 00:32:14;;;;;;;4.15;2.45;;;;;;;;;;10444092;28;20386;-77
2023/07/13 00:37:17;;;;;;;4.97;2.80;;;;;;;;;;10444391;28;20059;-76
2023/07/13 00:42:21;;;;;;;7.73;2.60;;;;;;;;;;10442911;28;20116;-78
2023/07/13 00:47:23;;;;;;;4.78;1.98;;;;;;;;;;10444365;28;20132;-78
2023/07/13 00:52:28;;;;;;;4.17;1.97;;;;;;;;;;10444665;28;20040;-77
2023/07/13 00:57:33;;;;;;;3.72;2.00;;;;;;;;;;10437733;28;20374;-78
2023/07/13 01:02:36;;;;;;;4.72;2.22;;;;;;;;;;10438736;28;20132;-79
2023/07/13 01:07:39;;;;;;;5.60;2.50;;;;;;;;;;10440141;28;20056;-79
2023/07/13 01:12:43;;;;;;;4.03;1.47;;;;;;;;;;10437470;28;20437;-78
2023/07/13 01:17:46;;;;;;;3.45;1.92;;;;;;;;;;10436081;28;20812;-78
2023/07/13 01:22:50;;;;;;;2.50;1.73;;;;;;;;;;10440295;28;20091;-78
2023/07/13 01:27:53;;;;;;;5.00;2.00;;;;;;;;;;10438884;28;20264;-78
2023/07/13 01:32:55;;;;;;;3.80;2.40;;;;;;;;;;10437012;28;20375;-78
2023/07/13 01:38:01;;;;;;;5.63;2.38;;;;;;;;;;10447168;28;20148;-78
2023/07/13 01:43:04;;;;;;;3.72;1.95;;;;;;;;;;10440951;28;20041;-78
2023/07/13 01:48:07;;;;;;;4.05;2.35;;;;;;;;;;10429200;28;20049;-78
2023/07/13 01:53:09;;;;;;;;;;;;;;;;;;10435897;28;20123;-79
2023/07/13 01:58:13;;;;;;;4.72;2.70;;;;;;;;;;10436835;28;19921;-79
2023/07/13 02:03:17;;;;;;;5.25;2.42;;;;;;;;;;10436860;28;20063;-78
2023/07/13 02:08:21;;;;;;;4.72;2.70;;;;;;;;;;10436483;28;20072;-78
2023/07/13 02:13:25;;;;;;;5.60;2.92;;;;;;;;;;10431929;28;20045;-79
2023/07/13 02:18:28;;;;;;;7.28;2.80;;;;;;;;;;10434916;28;20048;-79
2023/07/13 02:23:30;;;;;;;7.90;2.90;;;;;;;;;;10440436;28;20499;-77
2023/07/13 02:28:34;;;;;;;8.03;3.00;;;;;;;;;;10443578;28;20113;-79
2023/07/13 02:33:37;;;;;;;6.43;3.00;;;;;;;;;;10440669;28;20111;-79
2023/07/13 02:38:39;;;;;;;4.47;2.83;;;;;;;;;;10440973;28;20128;-78
2023/07/13 02:43:43;;;;;;;6.07;2.90;;;;;;;;;;10441018;28;20065;-78
2023/07/13 02:48:46;;;;;;;7.07;3.13;;;;;;;;;;10443471;28;20049;-80
2023/07/13 02:53:49;;;;;;;6.93;2.73;;;;;;;;;;10445714;28;20095;-79
2023/07/13 02:58:53;;;;;;;4.37;2.60;;;;;;;;;;10443222;28;20330;-78
2023/07/13 03:03:55;;;;;;;4.15;2.30;;;;;;;;;;10439152;28;20068;-78
2023/07/13 03:08:59;;;;;;;4.22;2.35;;;;;;;;;;10438398;28;20044;-79
2023/07/13 03:14:03;;;;;;;8.63;3.20;;;;;;;;;;10442850;28;20041;-78
2023/07/13 03:19:06;;;;;;;9.45;3.53;;;;;;;;;;10445107;28;20067;-79
2023/07/13 03:24:08;;;;;;;5.63;3.40;;;;;;;;;;10450534;28;20064;-79
2023/07/13 03:29:13;;;;;;;9.88;3.78;;;;;;;;;;10444356;28;20098;-78
2023/07/13 03:34:15;;;;;;;9.05;3.80;;;;;;;;;;10443522;28;20397;-78
2023/07/13 03:39:18;;;;;;;7.93;3.90;;;;;;;;;;10448160;28;20087;-78
2023/07/13 03:44:22;;;;;;;6.67;3.50;;;;;;;;;;10442346;28;20299;-78
2023/07/13 03:49:25;;;;;;;4.32;2.15;;;;;;;;;;10445739;28;20091;-78
2023/07/13 03:54:28;;;;;;;8.45;3.20;;;;;;;;;;10444292;28;20041;-78
2023/07/13 03:59:32;;;;;;;4.50;2.30;;;;;;;;;;10440383;28;20041;-78
2023/07/13 04:04:35;;;;;;;6.45;2.15;;;;;;;;;;10443357;28;20301;-78
2023/07/13 04:09:38;;;;;;;5.47;2.70;;;;;;;;;;10441853;28;20132;-78
2023/07/13 04:14:43;;;;;;;4.05;1.88;;;;;;;;;;10440885;28;20033;-78
2023/07/13 04:19:46;;;;;;;5.10;2.35;;;;;;;;;;10445406;28;20047;-78
2023/07/13 04:24:49;;;;;;;4.70;2.30;;;;;;;;;;10443622;28;20041;-78
2023/07/13 04:29:52;;;;;;;;;;;;;;;;;;10454379;28;20303;-80
2023/07/13 04:34:59;;;;;;;4.47;2.22;;;;;;;;;;10443203;28;19930;-79
2023/07/13 04:40:01;;;;;;;2.88;1.75;;;;;;;;;;10443986;28;20040;-79
2023/07/13 04:45:04;;;;;;;7.63;3.20;;;;;;;;;;10442725;28;20465;-79
2023/07/13 04:50:10;;;;;;;5.22;2.47;;;;;;;;;;10443823;28;20056;-79
2023/07/13 04:55:13;;;;;;;5.53;2.20;;;;;;;;;;10449709;28;20033;-80
2023/07/13 05:00:16;;;;;;;8.75;2.70;;;;;;;;;;10442344;28;20401;-79
2023/07/13 05:05:21;;;;;;;6.30;2.63;;;;;;;;;;10450876;28;20060;-77
2023/07/13 05:10:24;;;;;;;5.82;2.25;;;;;;;;;;10452334;28;20044;-77
2023/07/13 05:15:27;;;;;;;5.57;2.90;;;;;;;;;;10447908;28;20104;-78
2023/07/13 05:20:31;;;;;;;5.70;2.80;;;;;;;;;;10446318;28;20339;-77
2023/07/13 05:25:34;;;;;;;5.00;2.53;;;;;;;;;;10449670;28;20041;-77
2023/07/13 05:30:37;;;;;;;5.30;2.53;;;;;;;;;;10439413;28;20122;-78
2023/07/13 05:35:41;;;;;;;4.03;2.47;;;;;;;;;;10438536;28;21063;-79
2023/07/13 05:40:44;;;;;;;5.43;2.53;;;;;;;;;;10456225;28;20033;-79
2023/07/13 05:45:48;;;;;;;7.55;2.97;;;;;;;;;;10437612;28;20647;-77
2023/07/13 05:50:52;;;;;;;6.18;2.47;;;;;;;;;;10439209;28;20047;-76
2023/07/13 05:55:55;;;;;;;4.75;2.45;;;;;;;;;;10445851;28;20037;-76
2023/07/13 06:01:03;;;;;;;4.80;2.53;;;;;;;;;;10444971;28;20562;-75
2023/07/13 06:06:08;;;;;;;4.88;2.13;;;;;;;;;;10447674;28;20120;-75
2023/07/13 06:11:14;;;;;;;6.55;2.50;;;;;;;;;;10449972;28;20487;-76
2023/07/13 06:16:17;;;;;;;5.15;2.50;;;;;;;;;;10466044;28;21098;-77
2023/07/13 06:21:22;;;;;;;5.85;2.13;;;;;;;;;;10447021;28;20055;-75
2023/07/13 06:26:24;;;;;;;5.75;2.05;;;;;;;;;;10445187;28;20398;-76
2023/07/13 06:31:28;;;;;;;2.47;1.80;;;;;;;;;;10443821;28;20115;-77
2023/07/13 06:36:31;;;;;;;;;;;;;;;;;;10441175;28;20045;-76
2023/07/13 06:41:35;;;;;;;3.13;1.80;;;;;;;;;;10446810;28;19925;-76
2023/07/13 06:46:37;;;;;;;4.20;1.90;;;;;;;;;;10442379;28;20043;-76
2023/07/13 06:51:40;;;;;;;4.47;2.10;;;;;;;;;;10446540;28;20052;-77
2023/07/13 06:56:44;;;;;;;4.43;2.15;;;;;;;;;;10443599;28;20464;-74
2023/07/13 07:01:47;;;;;;;4.80;2.10;;;;;;;;;;10444206;28;20053;-74
2023/07/13 07:06:50;;;;;;;4.50;2.00;;;;;;;;;;10446637;28;20510;-76
2023/07/13 07:11:54;;;;;;;3.15;2.17;;;;;;;;;;10447690;28;20490;-76
2023/07/13 07:17:05;;;;;;;5.43;2.33;;;;;;;;;;10447278;28;20036;-76
2023/07/13 07:22:08;;;;;;;;;;;;;;;;;;10442260;28;20641;-74
2023/07/13 07:27:13;;;;;;;3.63;2.08;;;;;;;;;;10441766;28;19925;-75
2023/07/13 07:32:19;;;;;;;4.28;1.73;;;;;;;;;;10442300;28;20047;-76
2023/07/13 07:37:25;;;;;;;4.28;1.80;;;;;;;;;;10438705;28;20133;-76
2023/07/13 07:42:50;;;;;;;2.75;1.80;;;;;;;;;;10441195;28;20052;-75
2023/07/13 07:47:54;;;;;;;4.63;1.98;;;;;;;;;;10439252;28;20037;-75
2023/07/13 07:52:57;;;;;;;4.90;2.20;;;;;;;;;;10440099;28;20123;-75
2023/07/13 07:58:01;;;;;;;4.53;2.20;;;;;;;;;;10442106;28;20033;-75
2023/07/13 08:03:07;;;;;;;6.07;2.25;;;;;;;;;;10443795;28;20505;-76
2023/07/13 08:08:14;;;;;;;2.50;1.77;;;;;;;;;;10437427;28;20037;-76
2023/07/13 08:13:18;;;;;;;7.30;1.95;;;;;;;;;;10440716;28;20072;-76
2023/07/13 08:18:21;;;;;;;3.75;2.15;;;;;;;;;;10436201;28;20044;-76
2023/07/13 08:23:24;;;;;;;;;;;;;;;;;;10441809;28;20051;-77
2023/07/13 08:28:29;;;;;;;5.23;2.60;;;;;;;;;;10439844;28;20024;-76
2023/07/13 08:33:32;;;;;;;5.32;2.00;;;;;;;;;;10440109;28;20053;-77
2023/07/13 08:38:35;;;;;;;4.07;2.00;;;;;;;;;;10438615;28;20478;-77
2023/07/13 08:43:40;;;;;;;3.90;1.60;;;;;;;;;;10442641;28;20045;-76
2023/07/13 08:48:45;;;;;;;4.38;1.70;;;;;;;;;;10435431;28;20130;-76
2023/07/13 08:53:50;;;;;;;9.93;1.80;;;;;;;;;;10445041;28;20085;-77
2023/07/13 08:58:56;;;;;;;4.43;1.60;;;;;;;;;;10433737;28;20133;-76
2023/07/13 09:04:04;;;;;;;3.05;1.83;;;;;;;;;;10430028;28;20562;-75
2023/07/13 09:09:11;;;;;;;2.78;1.45;;;;;;;;;;10436027;28;20126;-75
2023/07/13 09:14:26;;;;;;;8.90;1.60;;;;;;;;;;10430874;28;20055;-75
2023/07/13 09:19:29;;;;;;;10.77;2.20;;;;;;;;;;10437830;28;20071;-75
2023/07/13 09:24:37;;;;;;;8.95;1.60;;;;;;;;;;10439092;28;20111;-74
2023/07/13 09:29:44;;;;;;;6.10;1.73;;;;;;;;;;10438006;28;20045;-76
2023/07/13 09:34:51;;;;;;;4.10;1.77;;;;;;;;;;10447553;28;20040;-75
2023/07/13 09:39:54;;;;;;;6.30;1.67;;;;;;;;;;10443975;28;20045;-77
2023/07/13 09:44:59;;;;;;;4.57;1.70;;;;;;;;;;10447092;28;20063;-74
2023/07/13 09:50:02;;;;;;;4.47;1.77;;;;;;;;;;10450263;28;20128;-75
2023/07/13 09:55:23;;;;;;;5.60;1.85;;;;;;;;;;10450445;28;20080;-76
2023/07/13 10:00:29;;;;;;;5.88;1.70;;;;;;;;;;10442643;28;20498;-76
2023/07/13 10:05:41;;;;;;;2.28;1.55;;;;;;;;;;10440929;28;20045;-76
2023/07/13 10:10:44;;;;;;;4.03;1.70;;;;;;;;;;10434579;28;20055;-76
2023/07/13 10:15:49;;;;;;;4.45;2.00;;;;;;;;;;10438426;28;20053;-77
2023/07/13 10:20:55;;;;;;;4.65;1.67;;;;;;;;;;10438530;28;20127;-77
2023/07/13 10:26:17;;;;;;;3.58;1.40;;;;;;;;;;10440037;28;20044;-78
2023/07/13 10:31:22;;;;;;;3.53;1.65;;;;;;;;;;10438437;28;20057;-76
2023/07/13 10:36:32;;;;;;;1.40;1.30;;;;;;;;;;10443440;28;20073;-76
2023/07/13 10:41:37;;;;;;;4.57;1.80;;;;;;;;;;10439206;28;20059;-75
2023/07/13 10:46:42;;;;;;;3.10;1.85;;;;;;;;;;10439155;28;20407;-76
2023/07/13 10:51:45;;;;;;;2.58;1.40;;;;;;;;;;10444155;28;20113;-76
2023/07/13 10:56:50;;;;;;;5.43;1.77;;;;;;;;;;10441971;28;20037;-75
2023/07/13 11:01:59;;;;;;;3.10;1.80;;;;;;;;;;10441870;28;20037;-76
2023/07/13 11:07:11;;;;;;;3.63;1.80;;;;;;;;;;10446220;28;20199;-75
2023/07/13 11:12:27;;;;;;;2.28;1.50;;;;;;;;;;10438209;28;20111;-75
2023/07/13 11:17:39;;;;;;;4.82;1.90;;;;;;;;;;10441189;28;20500;-75
2023/07/13 11:22:43;;;;;;;3.35;1.70;;;;;;;;;;10442353;28;20125;-76
2023/07/13 11:27:49;;;;;;;3.50;1.70;;;;;;;;;;10446201;28;20072;-75
2023/07/13 11:33:05;;;;;;;2.92;1.40;;;;;;;;;;10439382;28;20064;-76
2023/07/13 11:38:13;;;;;;;4.95;2.10;;;;;;;;;;10441220;28;20139;-75
2023/07/13 11:43:16;;;;;;;4.55;1.80;;;;;;;;;;10443909;28;20498;-76
2023/07/13 11:48:25;;;;;;;5.03;2.10;;;;;;;;;;10443251;28;20047;-76
2023/07/13 11:53:30;;;;;;;3.30;1.83;;;;;;;;;;10445050;28;20148;-76
2023/07/13 11:58:34;;;;;;;5.25;1.70;;;;;;;;;;10439066;28;20041;-75
2023/07/13 12:03:40;;;;;;;4.97;2.03;;;;;;;;;;10443595;28;20048;-78
2023/07/13 12:08:43;;;;;;;6.65;2.20;;;;;;;;;;10437411;28;20040;-78
2023/07/13 12:13:48;;;;;;;3.70;1.58;;;;;;;;;;10441270;28;20178;-77
2023/07/13 12:18:53;;;;;;;3.40;1.83;;;;;;;;;;10439212;28;20128;-77
2023/07/13 12:23:56;;;;;;;2.88;1.55;;;;;;;;;;10441712;28;20206;-77
2023/07/13 12:29:00;;;;;;;3.53;1.42;;;;;;;;;;10435496;28;20037;-77
2023/07/13 12:34:07;;;;;;;3.40;1.58;;;;;;;;;;10438286;28;20041;-78
2023/07/13 12:39:15;;;;;;;5.88;1.85;;;;;;;;;;10438885;28;20462;-76
2023/07/13 12:44:20;;;;;;;2.95;1.60;;;;;;;;;;10439561;28;20049;-76
2023/07/13 12:49:30;;;;;;;4.40;1.92;;;;;;;;;;10434779;28;20086;-76
2023/07/13 12:54:33;;;;;;;3.42;1.98;;;;;;;;;;10435143;28;20041;-76
2023/07/13 12:59:37;;;;;;;3.30;1.70;;;;;;;;;;10434323;28;20053;-76
2023/07/13 13:04:43;;;;;;;1.67;1.27;;;;;;;;;;10437134;28;20049;-76
2023/07/13 13:09:47;;;;;;;2.13;1.33;;;;;;;;;;10441500;28;20047;-77
2023/07/13 13:14:52;;;;;;;2.55;1.50;;;;;;;;;;10442189;28;20120;-77
2023/07/13 13:19:57;;;;;;;3.60;1.60;;;;;;;;;;10436595;28;20522;-77
2023/07/13 13:25:00;;;;;;;3.67;1.58;;;;;;;;;;10442468;28;20095;-77
2023/07/13 13:30:02;;;;;;;7.03;1.58;;;;;;;;;;10436565;28;20029;-76
2023/07/13 13:35:13;;;;;;;4.13;1.85;;;;;;;;;;10435651;28;20491;-77
2023/07/13 13:40:17;;;;;;;4.03;1.77;;;;;;;;;;10444609;28;20079;-77
2023/07/13 13:45:21;;;;;;;2.60;1.33;;;;;;;;;;10432333;28;20132;-77
2023/07/13 13:50:25;;;;;;;4.88;1.60;;;;;;;;;;10436056;28;20434;-77
2023/07/13 13:55:28;;;;;;;4.47;1.38;;;;;;;;;;10433140;28;20421;-77
2023/07/13 14:00:31;;;;;;;3.33;1.52;;;;;;;;;;10430095;28;20061;-76
2023/07/13 14:05:35;;;;;;;3.10;1.50;;;;;;;;;;10435784;28;20114;-76
2023/07/13 14:10:38;;;;;;;3.78;1.88;;;;;;;;;;10443233;28;20509;-75
2023/07/13 14:15:41;;;;;;;5.20;2.10;;;;;;;;;;10440270;28;20144;-76
2023/07/13 14:20:46;;;;;;;3.13;1.60;;;;;;;;;;10442607;28;20482;-75
2023/07/13 14:25:49;;;;;;;3.58;1.40;;;;;;;;;;10441780;28;20390;-76
2023/07/13 14:30:54;;;;;;;1.20;1.00;;;;;;;;;;10442400;28;20044;-76
2023/07/13 14:35:58;;;;;;;3.75;1.27;;;;;;;;;;10446403;28;20034;-76
2023/07/13 14:41:01;;;;;;;3.33;1.52;;;;;;;;;;10445815;28;20072;-77
2023/07/13 14:46:04;;;;;;;3.40;1.27;;;;;;;;;;10446806;28;20033;-77
2023/07/13 14:51:10;;;;;;;3.20;1.73;;;;;;;;;;10443350;28;20110;-76
2023/07/13 14:56:14;;;;;;;3.10;1.60;;;;;;;;;;10438331;28;20602;-76
2023/07/13 15:01:17;;;;;;;2.65;1.30;;;;;;;;;;10438818;28;20064;-76
2023/07/13 15:06:21;;;;;;;6.40;1.45;;;;;;;;;;10439427;28;20413;-76
2023/07/13 15:11:25;;;;;;;4.13;1.52;;;;;;;;;;10439222;28;20176;-76
2023/07/13 15:16:28;;;;;;;7.00;2.30;;;;;;;;;;10435314;28;20127;-76
2023/07/13 15:21:34;;;;;;;4.53;1.73;;;;;;;;;;10441081;28;20543;-76
2023/07/13 15:26:38;;;;;;;2.67;1.70;;;;;;;;;;10438491;28;20099;-76
2023/07/13 15:31:41;;;;;;;7.53;2.00;;;;;;;;;;10439221;28;20402;-76
2023/07/13 15:36:46;;;;;;;3.88;1.90;;;;;;;;;;10446025;28;20175;-76
2023/07/13 15:41:50;;;;;;;3.25;1.50;;;;;;;;;;10442861;28;20037;-76
2023/07/13 15:46:54;;;;;;;3.63;1.48;;;;;;;;;;10448951;28;20063;-76
2023/07/13 15:51:58;;;;;;;4.25;1.90;;;;;;;;;;10441844;28;20041;-77
2023/07/13 15:57:02;;;;;;;2.40;1.35;;;;;;;;;;10445391;28;20119;-77
2023/07/13 16:02:12;;;;;;;2.80;1.30;;;;;;;;;;10445077;28;20049;-76
2023/07/13 16:07:18;;;;;;;3.75;1.67;;;;;;;;;;10443397;28;20494;-77
2023/07/13 16:12:21;;;;;;;2.90;1.48;;;;;;;;;;10437373;28;20474;-77
2023/07/13 16:17:24;;;;;;;3.38;1.50;;;;;;;;;;10443190;28;20045;-87
2023/07/13 16:22:29;;;;;;;3.40;1.58;;;;;;;;;;10466571;28;20112;-88
2023/07/13 16:27:33;;;;;;;3.28;1.60;;;;;;;;;;10460197;28;20051;-89
2023/07/13 16:32:37;;;;;;;4.90;2.15;;;;;;;;;;10464030;28;20045;-89
2023/07/13 16:37:41;;;;;;;3.55;1.60;;;;;;;;;;10454956;28;20041;-88
2023/07/13 16:43:06;;;;;;;;;;;;;;;;;;10451827;28;20418;-87
2023/07/13 16:48:14;;;;;;;3.42;1.60;;;;;;;;;;10445128;28;19925;-87
2023/07/13 16:53:21;;;;;;;3.30;1.85;;;;;;;;;;10456739;28;20083;-85
2023/07/13 16:58:25;;;;;;;3.47;1.70;;;;;;;;;;10439912;28;20051;-86
2023/07/13 17:03:29;;;;;;;5.03;1.80;;;;;;;;;;10443978;28;20036;-86
2023/07/13 17:08:33;;;;;;;4.45;1.70;;;;;;;;;;10447570;28;20075;-92
2023/07/13 17:13:36;;;;;;;2.53;1.50;;;;;;;;;;10441917;28;20402;-87
2023/07/13 17:18:40;;;;;;;5.32;1.60;;;;;;;;;;10450023;28;20049;-87
2023/07/13 17:23:44;;;;;;;6.60;1.80;;;;;;;;;;10453911;28;20052;-89
2023/07/13 17:28:47;;;;;;;4.07;1.77;;;;;;;;;;10471372;28;20103;-89
2023/07/13 17:33:51;;;;;;;2.55;1.50;;;;;;;;;;10453300;28;20079;-89
2023/07/13 17:38:56;;;;;;;2.85;1.42;;;;;;;;;;10440731;28;20513;-89
2023/07/13 17:43:59;;;;;;;3.50;1.65;;;;;;;;;;10445351;28;20285;-91
2023/07/13 17:49:03;;;;;;;4.18;2.10;;;;;;;;;;10437011;28;20033;-90
2023/07/13 17:54:13;;;;;;;2.72;1.55;;;;;;;;;;10451156;28;20044;-91
2023/07/13 17:59:16;;;;;;;4.32;1.83;;;;;;;;;;10450342;28;20402;-89
2023/07/13 18:04:22;;;;;;;3.85;1.70;;;;;;;;;;10457004;28;20561;-88
2023/07/13 18:09:29;;;;;;;6.03;1.80;;;;;;;;;;10471122;28;20067;-89
2023/07/13 18:14:35;;;;;;;3.88;2.22;;;;;;;;;;10478893;28;20080;-90
2023/07/13 18:19:41;;;;;;;3.45;1.83;;;;;;;;;;10472436;28;20127;-88
2023/07/13 18:24:46;;;;;;;4.18;2.00;;;;;;;;;;10479632;28;20033;-87
2023/07/13 18:29:52;;;;;;;3.85;2.42;;;;;;;;;;10455269;28;20102;-90
2023/07/13 18:34:54;;;;;;;6.68;2.35;;;;;;;;;;10448278;28;20045;-87
2023/07/13 18:39:59;;;;;;;4.05;1.60;;;;;;;;;;10446702;28;20037;-87
2023/07/13 18:45:01;;;;;;;2.42;1.67;;;;;;;;;;10446091;28;20091;-84
2023/07/13 18:50:12;;;;;;;6.18;3.15;;;;;;;;;;10444808;28;20087;-85
2023/07/13 18:55:17;;;;;;;4.28;1.90;;;;;;;;;;10447484;28;20041;-89
2023/07/13 19:00:22;;;;;;;4.60;1.95;;;;;;;;;;10445960;28;20052;-87
2023/07/13 19:05:29;;;;;;;4.07;2.17;;;;;;;;;;10452360;28;20139;-88
2023/07/13 19:10:37;;;;;;;6.47;3.63;;;;;;;;;;10452099;28;20103;-89
2023/07/13 19:15:42;;;;;;;4.07;2.13;;;;;;;;;;10449881;28;20572;-89
2023/07/13 19:20:45;;;;;;;3.70;2.17;;;;;;;;;;10448753;28;20033;-89
2023/07/13 19:25:52;;;;;;;4.43;2.20;;;;;;;;;;10448965;28;20041;-89
2023/07/13 19:30:55;;;;;;;4.13;2.58;;;;;;;;;;10436233;28;20033;-88
2023/07/13 19:35:58;;;;;;;3.05;2.00;;;;;;;;;;10446769;28;20045;-88
2023/07/13 19:41:02;;;;;;;6.22;3.05;;;;;;;;;;10450217;28;20063;-80
2023/07/13 19:46:05;;;;;;;6.22;3.00;;;;;;;;;;10436815;28;20056;-78
2023/07/13 19:51:10;;;;;;;4.80;2.58;;;;;;;;;;10440052;28;20044;-78
2023/07/13 19:56:14;;;;;;;4.45;2.28;;;;;;;;;;10440399;28;20049;-76
2023/07/13 20:01:17;;;;;;;5.90;2.78;;;;;;;;;;10435250;28;20060;-77
2023/07/13 20:06:28;;;;;;;5.60;3.00;;;;;;;;;;10438009;28;20041;-76
2023/07/13 20:11:32;;;;;;;5.45;2.72;;;;;;;;;;10438943;28;20040;-78
2023/07/13 20:16:37;;;;;;;7.32;2.67;;;;;;;;;;10422700;28;20120;-77
2023/07/13 20:21:40;;;;;;;5.55;3.30;;;;;;;;;;10436540;28;20086;-77
2023/07/13 20:26:46;;;;;;;9.50;2.80;;;;;;;;;;10439741;28;20052;-77
2023/07/13 20:31:49;;;;;;;1.88;1.48;;;;;;;;;;10442928;28;20114;-76
2023/07/13 20:36:53;;;;;;;3.35;2.33;;;;;;;;;;10435700;28;20044;-76
2023/07/13 20:41:57;;;;;;;4.30;2.35;;;;;;;;;;10434693;28;20168;-75
2023/07/13 20:47:01;;;;;;;8.02;3.13;;;;;;;;;;10447290;28;20301;-78
2023/07/13 20:52:10;;;;;;;5.07;2.33;;;;;;;;;;10444079;28;20249;-76
2023/07/13 20:57:14;;;;;;;4.30;2.28;;;;;;;;;;10438619;28;20056;-75
2023/07/13 21:02:28;;;;;;;4.30;2.15;;;;;;;;;;10436390;28;20712;-76
2023/07/13 21:07:32;;;;;;;6.20;2.50;;;;;;;;;;10437796;28;20504;-76
2023/07/13 21:12:38;;;;;;;2.58;1.70;;;;;;;;;;10435964;28;20060;-76
2023/07/13 21:17:42;;;;;;;4.03;2.30;;;;;;;;;;10436906;28;20064;-77
2023/07/13 21:22:44;;;;;;;5.45;2.05;;;;;;;;;;10435781;28;20033;-76
2023/07/13 21:27:52;;;;;;;7.22;2.65;;;;;;;;;;10435982;28;20151;-76
2023/07/13 21:32:59;;;;;;;2.78;1.65;;;;;;;;;;10433133;28;20033;-77
2023/07/13 21:38:02;;;;;;;6.85;3.17;;;;;;;;;;10449042;28;20042;-77
2023/07/13 21:43:09;;;;;;;6.00;2.47;;;;;;;;;;10445158;28;20036;-75
2023/07/13 21:48:12;;;;;;;5.00;2.63;;;;;;;;;;10434423;28;20107;-75
2023/07/13 21:53:23;;;;;;;5.07;2.40;;;;;;;;;;10444595;28;20063;-76
2023/07/13 21:58:29;;;;;;;4.80;2.78;;;;;;;;;;10441545;28;21026;-76
2023/07/13 22:03:34;;;;;;;4.93;2.53;;;;;;;;;;10436438;28;20053;-75
2023/07/13 22:08:38;;;;;;;4.10;2.10;;;;;;;;;;10434976;28;20401;-76
2023/07/13 22:13:41;;;;;;;;;;;;;;;;;;10442023;28;20045;-75
2023/07/13 22:18:45;;;;;;;6.10;2.97;;;;;;;;;;10439169;28;20023;-76
2023/07/13 22:23:49;;;;;;;5.68;2.22;;;;;;;;;;10434593;28;20103;-76
2023/07/13 22:28:53;;;;;;;5.40;1.98;;;;;;;;;;10438062;28;20461;-76
2023/07/13 22:33:58;;;;;;;6.05;2.55;;;;;;;;;;10441859;28;20075;-76
2023/07/13 22:39:00;;;;;;;6.13;2.30;;;;;;;;;;10444754;28;20482;-76
2023/07/13 22:44:03;;;;;;;2.10;1.10;;;;;;;;;;10446309;28;20124;-75
2023/07/13 22:49:17;;;;;;;5.00;2.55;;;;;;;;;;10447922;28;20128;-75
2023/07/13 22:54:22;;;;;;;4.53;2.20;;;;;;;;;;10444033;28;20512;-75
2023/07/13 22:59:25;;;;;;;5.28;2.30;;;;;;;;;;10437024;28;20140;-74
2023/07/13 23:04:31;;;;;;;2.78;1.58;;;;;;;;;;10439650;28;20041;-75
2023/07/13 23:09:34;;;;;;;2.67;1.30;;;;;;;;;;10440834;28;20120;-75
2023/07/13 23:14:36;;;;;;;5.28;2.33;;;;;;;;;;10441028;28;20045;-76
2023/07/13 23:19:41;;;;;;;5.00;2.30;;;;;;;;;;10438679;28;20044;-74
2023/07/13 23:24:43;;;;;;;3.25;2.20;;;;;;;;;;10440345;28;20036;-74
2023/07/13 23:29:46;;;;;;;5.73;2.17;;;;;;;;;;10442292;28;20044;-74
2023/07/13 23:34:50;;;;;;;7.67;2.47;;;;;;;;;;10446531;28;20449;-75
2023/07/13 23:39:53;;;;;;;6.55;2.53;;;;;;;;;;10447664;28;20308;-75
2023/07/13 23:44:55;;;;;;;7.10;2.57;;;;;;;;;;10442871;28;20040;-75
2023/07/13 23:50:00;;;;;;;4.65;2.40;;;;;;;;;;10442852;28;20037;-76
2023/07/13 23:55:09;;;;;;;3.40;2.13;;;;;;;;;;10437849;28;20053;-76
